createdAt,value
2019-01-25T00:01:56.400Z,-1.68
2019-01-25T00:04:39.234Z,-1.68
2019-01-25T00:07:29.650Z,-1.69
2019-01-25T00:10:12.246Z,-1.73
2019-01-25T00:13:02.675Z,-1.75
2019-01-25T00:15:45.573Z,-1.74
2019-01-25T00:18:35.980Z,-1.76
2019-01-25T00:21:18.849Z,-1.74
2019-01-25T00:24:09.260Z,-1.73
2019-01-25T00:26:52.513Z,-1.77
2019-01-25T00:29:42.913Z,-1.75
2019-01-25T00:32:26.063Z,-1.77
2019-01-25T00:35:16.478Z,-1.72
2019-01-25T00:37:59.384Z,-1.73
2019-01-25T00:40:49.787Z,-1.73
2019-01-25T00:43:33.222Z,-1.71
2019-01-25T00:46:23.619Z,-1.68
2019-01-25T00:49:27.544Z,-1.68
2019-01-25T00:52:17.968Z,-1.69
2019-01-25T00:55:00.653Z,-1.63
2019-01-25T00:57:51.069Z,-1.64
2019-01-25T01:00:33.992Z,-1.68
2019-01-25T01:03:24.411Z,-1.66
2019-01-25T01:06:07.843Z,-1.63
2019-01-25T01:08:58.219Z,-1.61
2019-01-25T01:11:41.587Z,-1.62
2019-01-25T01:14:32.003Z,-1.58
2019-01-25T01:17:15.145Z,-1.64
2019-01-25T01:20:07.593Z,-1.67
2019-01-25T01:22:50.876Z,-1.68
2019-01-25T01:25:41.293Z,-1.67
2019-01-25T01:28:24.255Z,-1.70
2019-01-25T01:31:14.678Z,-1.71
2019-01-25T01:33:57.970Z,-1.70
2019-01-25T01:36:48.375Z,-1.71
2019-01-25T01:39:31.711Z,-1.69
2019-01-25T01:42:22.130Z,-1.65
2019-01-25T01:45:25.188Z,-1.64
2019-01-25T01:48:15.612Z,-1.62
2019-01-25T01:50:58.341Z,-1.60
2019-01-25T01:53:48.762Z,-1.62
2019-01-25T01:56:31.764Z,-1.64
2019-01-25T01:59:22.192Z,-1.63
2019-01-25T02:02:04.957Z,-1.60
2019-01-25T02:04:55.364Z,-1.59
2019-01-25T02:07:58.251Z,-1.61
2019-01-25T02:10:48.698Z,-1.60
2019-01-25T02:13:31.512Z,-1.59
2019-01-25T02:16:21.926Z,-1.58
2019-01-25T02:19:05.441Z,-1.58
2019-01-25T02:21:55.892Z,-1.61
2019-01-25T02:24:38.693Z,-1.61
2019-01-25T02:27:29.096Z,-1.61
2019-01-25T02:30:14.088Z,-1.62
2019-01-25T02:33:17.330Z,-1.64
2019-01-25T02:36:07.899Z,-1.65
2019-01-25T02:38:50.997Z,-1.62
2019-01-25T02:41:41.460Z,-1.64
2019-01-25T02:44:24.030Z,-1.63
2019-01-25T02:47:14.445Z,-1.63
2019-01-25T02:49:57.058Z,-1.61
2019-01-25T02:52:47.685Z,-1.62
2019-01-25T02:58:39.890Z,-1.64
2019-01-25T03:01:30.304Z,-1.61
2019-01-25T03:04:13.637Z,-1.63
2019-01-25T03:07:04.124Z,-1.62
2019-01-25T03:09:46.953Z,-1.62
2019-01-25T03:12:37.351Z,-1.61
2019-01-25T03:15:21.387Z,-1.56
2019-01-25T03:18:11.822Z,-1.61
2019-01-25T03:20:54.716Z,-1.63
2019-01-25T03:23:37.405Z,-1.63
2019-01-25T03:26:27.839Z,-1.62
2019-01-25T03:29:11.225Z,-1.62
2019-01-25T03:32:01.599Z,-1.64
2019-01-25T03:34:52.019Z,-1.62
2019-01-25T03:38:02.328Z,-1.61
2019-01-25T03:40:45.422Z,-1.62
2019-01-25T03:43:35.839Z,-1.59
2019-01-25T03:46:19.066Z,-1.58
2019-01-25T03:49:09.459Z,-1.61
2019-01-25T03:51:52.347Z,-1.62
2019-01-25T03:54:35.392Z,-1.65
2019-01-25T03:57:25.788Z,-1.67
2019-01-25T04:00:11.099Z,-1.67
2019-01-25T04:03:01.464Z,-1.64
2019-01-25T04:05:45.157Z,-1.65
2019-01-25T04:08:35.569Z,-1.66
2019-01-25T04:11:18.705Z,-1.63
2019-01-25T04:14:09.108Z,-1.66
2019-01-25T04:16:52.442Z,-1.67
2019-01-25T04:19:42.843Z,-1.63
2019-01-25T04:22:25.775Z,-1.59
2019-01-25T04:25:18.291Z,-1.62
2019-01-25T04:28:01.628Z,-1.62
2019-01-25T04:30:52.092Z,-1.62
2019-01-25T04:33:34.731Z,-1.61
2019-01-25T04:36:25.134Z,-1.64
2019-01-25T04:39:09.202Z,-1.66
2019-01-25T04:41:59.620Z,-1.64
2019-01-25T04:44:43.160Z,-1.64
2019-01-25T04:47:33.596Z,-1.65
2019-01-25T04:50:19.748Z,-1.61
2019-01-25T04:53:29.031Z,-1.60
2019-01-25T04:56:11.833Z,-1.61
2019-01-25T04:59:02.210Z,-1.61
2019-01-25T05:01:45.353Z,-1.58
2019-01-25T05:04:37.118Z,-1.60
2019-01-25T05:07:20.048Z,-1.61
2019-01-25T05:10:10.474Z,-1.56
2019-01-25T05:12:53.544Z,-1.57
2019-01-25T05:15:43.932Z,-1.57
2019-01-25T05:18:27.491Z,-1.59
2019-01-25T05:21:12.007Z,-1.61
2019-01-25T05:27:25.240Z,-1.60
2019-01-25T05:30:28.537Z,-1.60
2019-01-25T05:33:18.915Z,-1.58
2019-01-25T05:36:02.100Z,-1.55
2019-01-25T05:38:52.507Z,-1.50
2019-01-25T05:41:35.244Z,-1.51
2019-01-25T05:44:25.601Z,-1.55
2019-01-25T05:47:09.218Z,-1.58
2019-01-25T05:49:59.594Z,-1.48
2019-01-25T05:52:42.179Z,-1.55
2019-01-25T05:55:24.975Z,-1.54
2019-01-25T05:58:15.337Z,-1.61
2019-01-25T06:00:58.619Z,-1.61
2019-01-25T06:03:48.996Z,-1.61
2019-01-25T06:06:31.935Z,-1.63
2019-01-25T06:09:22.484Z,-1.64
2019-01-25T06:12:05.960Z,-1.62
2019-01-25T06:14:56.401Z,-1.60
2019-01-25T06:17:39.929Z,-1.56
2019-01-25T06:20:30.338Z,-1.52
2019-01-25T06:23:13.869Z,-1.53
2019-01-25T06:29:33.630Z,-1.53
2019-01-25T06:32:23.996Z,-1.51
2019-01-25T06:35:14.383Z,-1.48
2019-01-25T06:37:57.714Z,-1.47
2019-01-25T06:40:48.108Z,-1.45
2019-01-25T06:43:31.337Z,-1.43
2019-01-25T06:46:21.718Z,-1.44
2019-01-25T06:49:04.495Z,-1.45
2019-01-25T06:51:54.892Z,-1.41
2019-01-25T06:54:37.944Z,-1.38
2019-01-25T07:04:07.032Z,-1.39
2019-01-25T07:06:49.566Z,-1.50
2019-01-25T07:09:39.947Z,-1.43
2019-01-25T07:12:22.599Z,-1.35
2019-01-25T07:18:36.297Z,-1.51
2019-01-25T07:21:26.710Z,-1.46
2019-01-25T07:24:09.997Z,-1.41
2019-01-25T07:27:00.365Z,-1.39
2019-01-25T07:29:43.909Z,-1.32
2019-01-25T07:32:34.302Z,-1.28
2019-01-25T07:35:17.366Z,-1.22
2019-01-25T07:38:07.723Z,-1.26
2019-01-25T07:40:51.302Z,-1.28
2019-01-25T07:43:41.691Z,-1.30
2019-01-25T07:46:24.143Z,-1.27
2019-01-25T07:49:14.534Z,-1.27
2019-01-25T07:51:57.901Z,-1.31
2019-01-25T07:54:48.231Z,-1.32
2019-01-25T07:57:31.306Z,-1.28
2019-01-25T08:00:21.700Z,-1.24
2019-01-25T08:03:05.118Z,-1.18
2019-01-25T08:05:55.521Z,-1.19
2019-01-25T08:08:38.982Z,-1.12
2019-01-25T08:11:29.374Z,-1.10
2019-01-25T08:14:12.978Z,-1.19
2019-01-25T08:17:03.499Z,-1.27
2019-01-25T08:19:47.040Z,-1.24
2019-01-25T08:22:37.449Z,-1.19
2019-01-25T08:25:20.215Z,-1.16
2019-01-25T08:28:10.655Z,-1.08
2019-01-25T08:30:53.838Z,-0.98
2019-01-25T08:33:44.234Z,-1.01
2019-01-25T08:36:27.025Z,-1.00
2019-01-25T08:39:17.441Z,-0.99
2019-01-25T08:41:58.296Z,-0.89
2019-01-25T08:44:39.044Z,-0.81
2019-01-25T08:47:29.500Z,-0.84
2019-01-25T08:50:34.460Z,-0.79
2019-01-25T08:53:24.888Z,-0.76
2019-01-25T08:56:08.071Z,-0.64
2019-01-25T08:58:58.945Z,-0.64
2019-01-25T09:02:03.267Z,-0.76
2019-01-25T09:04:53.645Z,-0.73
2019-01-25T09:07:36.207Z,-0.87
2019-01-25T09:10:26.680Z,-0.88
2019-01-25T09:13:10.149Z,-0.87
2019-01-25T09:16:00.545Z,-0.82
2019-01-25T09:18:43.927Z,-0.74
2019-01-25T09:21:34.339Z,-0.67
2019-01-25T09:24:17.211Z,-0.84
2019-01-25T09:27:07.584Z,-0.79
2019-01-25T09:29:50.468Z,-0.83
2019-01-25T09:32:40.836Z,-0.91
2019-01-25T09:35:23.497Z,-0.88
2019-01-25T09:38:13.894Z,-0.85
2019-01-25T09:41:04.306Z,-0.79
2019-01-25T09:43:47.071Z,-0.70
2019-01-25T09:46:37.429Z,-0.62
2019-01-25T09:49:20.266Z,-0.66
2019-01-25T09:52:10.756Z,-0.68
2019-01-25T09:54:53.961Z,-0.68
2019-01-25T09:57:36.595Z,-0.70
2019-01-25T10:00:47.641Z,-0.68
2019-01-25T10:03:30.806Z,-0.67
2019-01-25T10:06:21.168Z,-0.57
2019-01-25T10:09:05.938Z,-0.49
2019-01-25T10:11:56.308Z,-0.44
2019-01-25T10:14:39.760Z,-0.40
2019-01-25T10:17:30.156Z,-0.23
2019-01-25T10:20:13.848Z,-0.17
2019-01-25T10:23:04.255Z,-0.25
2019-01-25T10:25:46.835Z,-0.24
2019-01-25T10:28:37.250Z,-0.15
2019-01-25T10:31:20.563Z,-0.14
2019-01-25T10:34:10.947Z,-0.12
2019-01-25T10:36:53.725Z,-0.18
2019-01-25T10:39:44.124Z,-0.15
2019-01-25T10:42:27.059Z,-0.17
2019-01-25T10:45:37.379Z,-0.08
2019-01-25T10:48:20.168Z,-0.02
2019-01-25T10:51:10.562Z,0.05
2019-01-25T10:53:54.015Z,0.09
2019-01-25T10:56:44.428Z,-0.05
2019-01-25T10:59:27.325Z,0.09
2019-01-25T11:02:17.715Z,0.14
2019-01-25T11:05:01.249Z,0.08
2019-01-25T11:07:51.729Z,0.14
2019-01-25T11:10:34.717Z,0.16
2019-01-25T11:13:25.134Z,0.20
2019-01-25T11:16:11.762Z,0.25
2019-01-25T11:18:59.743Z,0.32
2019-01-25T11:22:02.680Z,0.22
2019-01-25T11:24:53.014Z,0.25
2019-01-25T11:27:35.954Z,0.29
2019-01-25T11:30:26.351Z,0.32
2019-01-25T11:33:09.685Z,0.40
2019-01-25T11:36:00.041Z,0.52
2019-01-25T11:38:42.922Z,0.52
2019-01-25T11:41:33.258Z,0.57
2019-01-25T11:44:16.243Z,0.54
2019-01-25T11:47:06.569Z,0.56
2019-01-25T11:49:49.656Z,0.36
2019-01-25T11:52:40.016Z,0.40
2019-01-25T11:55:22.893Z,0.49
2019-01-25T11:58:13.241Z,0.52
2019-01-25T12:00:56.720Z,0.44
2019-01-25T12:03:47.050Z,0.36
2019-01-25T12:06:30.376Z,0.30
2019-01-25T12:09:20.761Z,0.33
2019-01-25T12:12:03.721Z,0.40
2019-01-25T12:14:54.067Z,0.41
2019-01-25T12:17:36.874Z,0.38
2019-01-25T12:20:40.140Z,0.49
2019-01-25T12:23:30.995Z,0.54
2019-01-25T12:26:13.579Z,0.60
2019-01-25T12:29:03.933Z,0.69
2019-01-25T12:31:47.002Z,0.79
2019-01-25T12:34:38.207Z,0.75
2019-01-25T12:37:21.291Z,0.67
2019-01-25T12:40:12.956Z,0.72
2019-01-25T12:42:55.569Z,0.85
2019-01-25T12:49:14.437Z,0.93
2019-01-25T12:52:09.347Z,1.03
2019-01-25T12:54:53.815Z,1.14
2019-01-25T12:57:44.322Z,1.14
2019-01-25T13:00:26.953Z,1.18
2019-01-25T13:03:10.824Z,1.10
2019-01-25T13:09:05.469Z,1.18
2019-01-25T13:11:55.867Z,1.22
2019-01-25T13:14:39.121Z,1.21
2019-01-25T13:17:29.494Z,1.28
2019-01-25T13:20:14.740Z,1.30
2019-01-25T13:23:05.252Z,1.25
2019-01-25T13:25:47.848Z,1.27
2019-01-25T13:28:41.759Z,1.24
2019-01-25T13:31:42.817Z,1.20
2019-01-25T13:34:33.285Z,1.35
2019-01-25T13:37:16.592Z,1.48
2019-01-25T13:40:10.037Z,1.48
2019-01-25T13:42:53.274Z,1.49
2019-01-25T13:45:43.697Z,1.41
2019-01-25T13:48:27.233Z,1.31
2019-01-25T13:51:17.574Z,1.42
2019-01-25T13:54:00.547Z,1.46
2019-01-25T13:56:43.101Z,1.58
2019-01-25T13:59:25.895Z,1.57
2019-01-25T14:02:16.317Z,1.71
2019-01-25T14:04:59.830Z,1.84
2019-01-25T14:07:50.243Z,1.88
2019-01-25T14:10:34.184Z,1.73
2019-01-25T14:13:24.618Z,1.86
2019-01-25T14:16:07.996Z,1.74
2019-01-25T14:18:58.378Z,1.81
2019-01-25T14:21:41.448Z,1.92
2019-01-25T14:24:31.785Z,1.86
2019-01-25T14:27:14.613Z,1.83
2019-01-25T14:33:53.011Z,1.90
2019-01-25T14:36:43.389Z,2.01
2019-01-25T14:39:26.872Z,1.96
2019-01-25T14:42:17.219Z,1.92
2019-01-25T14:44:59.881Z,1.87
2019-01-25T14:47:50.238Z,1.85
2019-01-25T14:50:33.785Z,1.97
2019-01-25T14:53:24.162Z,1.90
2019-01-25T14:56:06.956Z,1.88
2019-01-25T14:58:49.876Z,1.91
2019-01-25T15:01:21.151Z,1.98
2019-01-25T15:04:11.540Z,1.89
2019-01-25T15:06:54.644Z,1.82
2019-01-25T15:09:45.037Z,1.93
2019-01-25T15:12:27.718Z,1.91
2019-01-25T15:15:18.276Z,1.88
2019-01-25T15:18:00.937Z,1.80
2019-01-25T15:20:51.363Z,1.81
2019-01-25T15:23:34.872Z,1.89
2019-01-25T15:26:25.219Z,1.92
2019-01-25T15:29:08.636Z,1.96
2019-01-25T15:31:59.060Z,1.97
2019-01-25T15:34:42.211Z,1.92
2019-01-25T15:37:32.932Z,2.00
2019-01-25T15:40:15.609Z,1.93
2019-01-25T15:43:06.003Z,2.01
2019-01-25T15:45:49.087Z,2.01
2019-01-25T15:48:39.425Z,2.00
2019-01-25T15:51:22.675Z,1.86
2019-01-25T15:54:13.042Z,1.95
2019-01-25T15:56:55.856Z,1.87
2019-01-25T15:59:46.174Z,1.98
2019-01-25T16:02:29.307Z,2.01
2019-01-25T16:05:59.502Z,2.12
2019-01-25T16:08:42.489Z,2.01
2019-01-25T16:11:32.857Z,2.21
2019-01-25T16:14:18.065Z,2.12
2019-01-25T16:17:07.815Z,2.08
2019-01-25T16:19:50.789Z,2.04
2019-01-25T16:22:41.178Z,2.17
2019-01-25T16:25:28.037Z,2.14
2019-01-25T16:28:18.439Z,2.17
2019-01-25T16:31:02.122Z,2.11
2019-01-25T16:33:52.540Z,2.07
2019-01-25T16:36:35.637Z,2.04
2019-01-25T16:39:26.015Z,1.99
2019-01-25T16:42:08.565Z,1.94
2019-01-25T16:44:58.905Z,1.99
2019-01-25T16:47:42.255Z,1.92
2019-01-25T16:50:32.663Z,1.78
2019-01-25T16:53:16.241Z,1.74
2019-01-25T16:56:06.866Z,1.75
2019-01-25T16:58:49.575Z,1.65
2019-01-25T17:01:33.142Z,1.80
2019-01-25T17:04:23.471Z,1.75
2019-01-25T17:07:06.960Z,1.70
2019-01-25T17:09:57.324Z,1.63
2019-01-25T17:12:40.586Z,1.64
2019-01-25T17:15:30.985Z,1.50
2019-01-25T17:18:14.044Z,1.45
2019-01-25T17:21:24.904Z,1.48
2019-01-25T17:24:07.935Z,1.58
2019-01-25T17:26:58.312Z,1.43
2019-01-25T17:29:40.850Z,1.58
2019-01-25T17:32:31.206Z,1.56
2019-01-25T17:35:14.310Z,1.53
2019-01-25T17:41:53.488Z,1.50
2019-01-25T17:44:43.839Z,1.52
2019-01-25T17:47:34.236Z,1.52
2019-01-25T17:50:37.405Z,1.46
2019-01-25T17:53:27.769Z,1.52
2019-01-25T17:56:10.318Z,1.59
2019-01-25T17:58:52.859Z,1.52
2019-01-25T18:01:43.216Z,1.50
2019-01-25T18:04:25.757Z,1.61
2019-01-25T18:07:16.120Z,1.56
2019-01-25T18:09:59.571Z,1.58
2019-01-25T18:12:49.933Z,1.54
2019-01-25T18:15:32.536Z,1.61
2019-01-25T18:18:22.910Z,1.61
2019-01-25T18:21:05.662Z,1.56
2019-01-25T18:23:56.022Z,1.58
2019-01-25T18:26:39.410Z,1.62
2019-01-25T18:29:34.904Z,1.60
2019-01-25T18:32:18.146Z,1.54
2019-01-25T18:35:08.513Z,1.69
2019-01-25T18:37:51.257Z,1.68
2019-01-25T18:40:41.608Z,1.75
2019-01-25T18:43:24.335Z,1.63
2019-01-25T18:46:14.747Z,1.71
2019-01-25T18:48:57.377Z,1.71
2019-01-25T18:51:47.753Z,1.79
2019-01-25T18:54:31.326Z,1.79
2019-01-25T18:57:21.662Z,1.83
2019-01-25T19:00:05.442Z,1.80
2019-01-25T19:02:55.795Z,1.83
2019-01-25T19:05:38.979Z,1.83
2019-01-25T19:08:29.339Z,1.87
2019-01-25T19:11:12.473Z,1.86
2019-01-25T19:14:02.846Z,1.91
2019-01-25T19:16:45.576Z,1.93
2019-01-25T19:19:35.948Z,1.94
2019-01-25T19:22:18.747Z,2.10
2019-01-25T19:25:09.179Z,2.03
2019-01-25T19:27:52.043Z,1.98
2019-01-25T19:30:44.365Z,2.07
2019-01-25T19:33:27.434Z,1.99
2019-01-25T19:36:18.033Z,2.09
2019-01-25T19:39:01.484Z,2.09
2019-01-25T19:41:51.830Z,2.19
2019-01-25T19:44:35.316Z,2.15
2019-01-25T19:47:25.715Z,2.16
2019-01-25T19:50:09.881Z,2.18
2019-01-25T19:53:00.263Z,2.17
2019-01-25T19:55:43.513Z,2.27
2019-01-25T19:58:33.903Z,2.11
2019-01-25T20:01:17.393Z,2.16
2019-01-25T20:04:07.759Z,2.14
2019-01-25T20:06:51.238Z,2.18
2019-01-25T20:09:41.610Z,2.09
2019-01-25T20:12:24.946Z,2.12
2019-01-25T20:15:19.578Z,2.22
2019-01-25T20:18:01.407Z,2.22
2019-01-25T20:20:51.796Z,2.15
2019-01-25T20:23:35.034Z,2.23
2019-01-25T20:26:25.394Z,2.16
2019-01-25T20:29:07.901Z,2.23
2019-01-25T20:31:58.236Z,2.29
2019-01-25T20:34:40.796Z,2.35
2019-01-25T20:37:31.162Z,2.43
2019-01-25T20:40:15.208Z,2.40
2019-01-25T20:43:26.052Z,2.30
2019-01-25T20:46:08.660Z,2.30
2019-01-25T20:48:59.153Z,2.19
2019-01-25T20:51:42.295Z,2.27
2019-01-25T20:54:32.657Z,2.21
2019-01-25T20:57:15.847Z,2.33
2019-01-25T20:59:59.129Z,2.33
2019-01-25T21:06:17.774Z,2.35
2019-01-25T21:12:31.821Z,2.40
2019-01-25T21:15:15.122Z,2.39
2019-01-25T21:18:06.108Z,2.46
2019-01-25T21:20:48.740Z,2.50
2019-01-25T21:23:39.225Z,2.52
2019-01-25T21:26:21.822Z,2.55
2019-01-25T21:29:12.221Z,2.52
2019-01-25T21:31:55.558Z,2.59
2019-01-25T21:34:45.993Z,2.59
2019-01-25T21:37:29.517Z,2.65
2019-01-25T21:40:21.869Z,2.61
2019-01-25T21:43:05.072Z,2.76
2019-01-25T21:45:55.437Z,2.78
2019-01-25T21:48:38.779Z,2.79
2019-01-25T21:51:29.122Z,2.77
2019-01-25T21:54:11.678Z,2.68
2019-01-25T21:57:02.089Z,2.66
2019-01-25T21:59:45.451Z,2.68
2019-01-25T22:02:28.651Z,2.68
2019-01-25T22:05:19.287Z,2.80
2019-01-25T22:08:02.799Z,2.86
2019-01-25T22:10:53.190Z,2.85
2019-01-25T22:13:36.289Z,2.90
2019-01-25T22:16:26.690Z,3.01
2019-01-25T22:19:09.875Z,2.90
2019-01-25T22:22:00.278Z,2.85
2019-01-25T22:24:50.654Z,2.91
2019-01-25T22:27:33.755Z,2.92
2019-01-25T22:33:53.381Z,2.92
2019-01-25T22:36:43.802Z,2.94
2019-01-25T22:39:27.207Z,3.02
2019-01-25T22:42:17.615Z,2.90
2019-01-25T22:45:00.243Z,2.91
2019-01-25T22:47:50.767Z,2.89
2019-01-25T22:50:35.350Z,2.94
2019-01-25T22:53:25.779Z,2.94
2019-01-25T22:56:08.500Z,3.02
2019-01-25T22:58:58.877Z,3.04
2019-01-25T23:01:42.237Z,3.07
2019-01-25T23:05:10.727Z,3.11
2019-01-25T23:07:54.377Z,3.10
2019-01-25T23:10:44.783Z,3.10
2019-01-25T23:13:28.318Z,3.18
2019-01-25T23:16:18.785Z,3.14
2019-01-25T23:19:01.772Z,3.14
2019-01-25T23:21:52.163Z,3.18
2019-01-25T23:24:35.324Z,3.15
2019-01-25T23:27:25.748Z,3.20
2019-01-25T23:30:12.850Z,3.20
2019-01-25T23:33:03.267Z,3.21
2019-01-25T23:35:46.649Z,3.27
2019-01-25T23:38:37.091Z,3.23
2019-01-25T23:41:20.420Z,3.23
2019-01-25T23:44:10.838Z,3.29
2019-01-25T23:46:54.146Z,3.25
2019-01-25T23:49:44.586Z,3.35
2019-01-25T23:52:27.377Z,3.37
2019-01-25T23:55:17.785Z,3.41
2019-01-25T23:58:01.039Z,3.43
